createdAt,value
2023-02-15T14:14:25.694Z,969.59
2023-02-15T14:15:23.719Z,969.61
2023-02-15T14:16:23.738Z,969.62
2023-02-15T14:17:23.718Z,969.63
2023-02-15T14:18:23.678Z,969.65
2023-02-15T14:19:24.038Z,969.61
2023-02-15T14:20:23.689Z,969.63
2023-02-15T14:21:24.594Z,969.65
2023-02-15T14:22:23.703Z,969.61
2023-02-15T14:23:23.646Z,969.63
2023-02-15T14:24:23.616Z,969.63
2023-02-15T14:25:23.604Z,969.63
2023-02-15T14:26:23.578Z,969.64
2023-02-15T14:27:26.637Z,969.60
2023-02-15T14:28:23.584Z,969.62
2023-02-15T14:29:23.604Z,969.65
2023-02-15T14:30:23.727Z,969.64
2023-02-15T14:31:23.672Z,969.66
2023-02-15T14:32:23.573Z,969.67
2023-02-15T14:33:23.521Z,969.65
2023-02-15T14:34:23.509Z,969.65
2023-02-15T14:35:23.496Z,969.68
2023-02-15T14:36:23.520Z,969.71
2023-02-15T14:37:23.497Z,969.67
2023-02-15T14:38:23.532Z,969.67
2023-02-15T14:39:23.457Z,969.71
2023-02-15T14:40:23.445Z,969.66
2023-02-15T14:41:23.444Z,969.67
2023-02-15T14:42:26.451Z,969.64
2023-02-15T14:43:23.456Z,969.68
2023-02-15T14:44:23.427Z,969.61
2023-02-15T14:45:23.388Z,969.65
2023-02-15T14:46:23.475Z,969.60
2023-02-15T14:47:23.373Z,969.60
2023-02-15T14:48:23.393Z,969.55
2023-02-15T14:49:23.404Z,969.61
2023-02-15T14:50:23.344Z,969.61
2023-02-15T14:51:23.354Z,969.61
2023-02-15T14:52:23.346Z,969.59
2023-02-15T14:53:23.298Z,969.60
2023-02-15T14:54:23.331Z,969.61
2023-02-15T14:55:23.328Z,969.58
2023-02-15T14:56:23.307Z,969.57
2023-02-15T14:57:26.362Z,969.57
2023-02-15T14:58:23.270Z,969.56
2023-02-15T14:59:23.301Z,969.53
2023-02-15T15:00:23.399Z,969.55
2023-02-15T15:01:23.335Z,969.54
2023-02-15T15:02:23.231Z,969.51
2023-02-15T15:03:23.230Z,969.52
2023-02-15T15:04:23.240Z,969.48
2023-02-15T15:05:23.182Z,969.51
2023-02-15T15:06:23.203Z,969.51
2023-02-15T15:07:23.185Z,969.49
2023-02-15T15:08:23.155Z,969.45
2023-02-15T15:09:23.182Z,969.50
2023-02-15T15:10:23.321Z,969.48
2023-02-15T15:11:31.549Z,969.52
2023-02-15T15:12:27.187Z,969.54
2023-02-15T15:13:23.121Z,969.55
2023-02-15T15:14:23.171Z,969.45
2023-02-15T15:15:23.085Z,969.46
2023-02-15T15:16:23.125Z,969.44
2023-02-15T15:17:23.082Z,969.41
2023-02-15T15:18:23.045Z,969.39
2023-02-15T15:19:23.048Z,969.42
2023-02-15T15:20:23.029Z,969.36
2023-02-15T15:21:23.063Z,969.37
2023-02-15T15:22:22.995Z,969.38
2023-02-15T15:23:22.995Z,969.39
2023-02-15T15:24:23.005Z,969.40
2023-02-15T15:25:23.003Z,969.40
2023-02-15T15:26:23.451Z,969.43
2023-02-15T15:27:26.039Z,969.41
2023-02-15T15:28:22.965Z,969.41
2023-02-15T15:29:22.950Z,969.42
2023-02-15T15:30:22.959Z,969.45
2023-02-15T15:31:23.076Z,969.41
2023-02-15T15:32:22.914Z,969.43
2023-02-15T15:33:23.063Z,969.44
2023-02-15T15:34:22.910Z,969.49
2023-02-15T15:35:22.855Z,969.47
2023-02-15T15:36:22.850Z,969.47
2023-02-15T15:37:22.853Z,969.45
2023-02-15T15:38:22.916Z,969.46
2023-02-15T15:39:22.855Z,969.47
2023-02-15T15:40:22.808Z,969.45
2023-02-15T15:41:22.803Z,969.50
2023-02-15T15:42:25.803Z,969.48
2023-02-15T15:43:22.792Z,969.48
2023-02-15T15:44:22.803Z,969.49
2023-02-15T15:45:22.810Z,969.48
2023-02-15T15:46:22.837Z,969.50
2023-02-15T15:47:22.758Z,969.48
2023-02-15T15:48:22.752Z,969.52
2023-02-15T15:49:22.746Z,969.54
2023-02-15T15:50:22.735Z,969.55
2023-02-15T15:51:22.721Z,969.52
2023-02-15T15:52:22.697Z,969.50
2023-02-15T15:53:22.701Z,969.52
2023-02-15T15:54:22.695Z,969.56
2023-02-15T15:55:22.700Z,969.52
2023-02-15T15:56:22.674Z,969.51
2023-02-15T15:57:25.660Z,969.50
2023-02-15T15:58:22.660Z,969.52
2023-02-15T15:59:22.618Z,969.52
2023-02-15T16:00:22.619Z,969.57
2023-02-15T16:01:22.660Z,969.52
2023-02-15T16:02:22.837Z,969.58
2023-02-15T16:03:22.592Z,969.61
2023-02-15T16:04:22.553Z,969.58
2023-02-15T16:05:22.575Z,969.58
2023-02-15T16:06:22.561Z,969.62
2023-02-15T16:07:22.540Z,969.65
2023-02-15T16:08:22.513Z,969.62
2023-02-15T16:09:22.508Z,969.62
2023-02-15T16:10:22.503Z,969.65
2023-02-15T16:11:22.516Z,969.64
2023-02-15T16:12:25.469Z,969.61
2023-02-15T16:13:22.494Z,969.65
2023-02-15T16:14:22.507Z,969.62
2023-02-15T16:15:22.442Z,969.63
2023-02-15T16:16:22.494Z,969.66
2023-02-15T16:17:22.431Z,969.66
2023-02-15T16:18:23.724Z,969.65
2023-02-15T16:19:22.404Z,969.67
2023-02-15T16:20:22.427Z,969.65
2023-02-15T16:21:22.386Z,969.65
2023-02-15T16:22:22.389Z,969.66
2023-02-15T16:23:22.397Z,969.66
2023-02-15T16:24:22.370Z,969.67
2023-02-15T16:25:22.374Z,969.69
2023-02-15T16:26:22.362Z,969.64
2023-02-15T16:27:25.309Z,969.70
2023-02-15T16:28:22.338Z,969.67
2023-02-15T16:29:22.342Z,969.70
2023-02-15T16:30:22.579Z,969.72
2023-02-15T16:31:22.327Z,969.72
2023-02-15T16:32:22.291Z,969.77
2023-02-15T16:33:22.248Z,969.72
2023-02-15T16:34:22.237Z,969.72
2023-02-15T16:35:22.223Z,969.71
2023-02-15T16:36:22.209Z,969.75
2023-02-15T16:37:22.256Z,969.75
2023-02-15T16:38:22.196Z,969.73
2023-02-15T16:39:22.210Z,969.78
2023-02-15T16:40:22.177Z,969.80
2023-02-15T16:41:22.313Z,969.76
2023-02-15T16:42:25.169Z,969.77
2023-02-15T16:43:22.166Z,969.76
2023-02-15T16:44:22.167Z,969.83
2023-02-15T16:45:22.147Z,969.80
2023-02-15T16:46:22.150Z,969.86
2023-02-15T16:47:22.091Z,969.89
2023-02-15T16:48:22.082Z,969.92
2023-02-15T16:49:22.114Z,969.90
2023-02-15T16:50:22.152Z,969.94
2023-02-15T16:51:22.088Z,969.94
2023-02-15T16:52:22.074Z,969.89
2023-02-15T16:53:22.032Z,969.93
2023-02-15T16:54:22.023Z,969.94
2023-02-15T16:55:22.043Z,969.94
2023-02-15T16:56:22.005Z,969.96
2023-02-15T16:57:25.029Z,970.00
2023-02-15T16:58:22.001Z,970.01
2023-02-15T16:59:21.969Z,970.00
2023-02-15T17:00:21.952Z,970.04
2023-02-15T17:01:22.192Z,970.06
2023-02-15T17:02:43.013Z,970.04
2023-02-15T17:03:23.031Z,970.06
2023-02-15T17:04:21.923Z,970.06
2023-02-15T17:05:21.974Z,970.02
2023-02-15T17:06:21.931Z,970.04
2023-02-15T17:07:21.907Z,970.03
2023-02-15T17:08:21.886Z,970.06
2023-02-15T17:09:22.007Z,970.06
2023-02-15T17:10:21.977Z,970.04
2023-02-15T17:11:21.879Z,970.06
2023-02-15T17:12:24.869Z,970.10
2023-02-15T17:13:22.098Z,970.11
2023-02-15T17:14:21.896Z,970.14
2023-02-15T17:15:21.832Z,970.10
2023-02-15T17:16:21.891Z,970.13
2023-02-15T17:17:21.809Z,970.10
2023-02-15T17:18:21.799Z,970.13
2023-02-15T17:19:22.862Z,970.15
2023-02-15T17:20:21.793Z,970.15
2023-02-15T17:21:22.135Z,970.20
2023-02-15T17:22:22.149Z,970.16
2023-02-15T17:23:22.163Z,970.20
2023-02-15T17:24:22.172Z,970.20
2023-02-15T17:25:21.785Z,970.18
2023-02-15T17:26:21.761Z,970.15
2023-02-15T17:27:25.091Z,970.22
2023-02-15T17:28:21.818Z,970.25
2023-02-15T17:29:21.730Z,970.22
2023-02-15T17:30:21.812Z,970.22
2023-02-15T17:31:21.841Z,970.19
2023-02-15T17:32:21.831Z,970.21
2023-02-15T17:33:21.709Z,970.21
2023-02-15T17:34:21.693Z,970.21
2023-02-15T17:35:21.891Z,970.18
2023-02-15T17:36:21.783Z,970.21
2023-02-15T17:37:21.658Z,970.18
2023-02-15T17:38:21.939Z,970.22
2023-02-15T17:39:21.984Z,970.20
2023-02-15T17:40:22.087Z,970.20
2023-02-15T17:41:21.616Z,970.22
2023-02-15T17:42:24.606Z,970.22
2023-02-15T17:43:21.614Z,970.21
2023-02-15T17:44:21.592Z,970.16
2023-02-15T17:45:22.034Z,970.20
2023-02-15T17:46:21.919Z,970.19
2023-02-15T17:47:21.947Z,970.22
2023-02-15T17:48:21.546Z,970.19
2023-02-15T17:49:21.916Z,970.21
2023-02-15T17:50:21.541Z,970.25
2023-02-15T17:51:21.515Z,970.23
2023-02-15T17:52:21.793Z,970.20
2023-02-15T17:53:21.774Z,970.22
2023-02-15T17:54:21.801Z,970.21
2023-02-15T17:55:21.699Z,970.20
2023-02-15T17:56:21.632Z,970.22
2023-02-15T17:57:24.728Z,970.20
2023-02-15T17:58:22.461Z,970.27
2023-02-15T17:59:21.429Z,970.24
2023-02-15T18:00:21.433Z,970.27
2023-02-15T18:01:21.795Z,970.31
2023-02-15T18:02:21.754Z,970.34
2023-02-15T18:03:21.701Z,970.33
2023-02-15T18:04:21.412Z,970.32
2023-02-15T18:05:21.386Z,970.35
2023-02-15T18:06:21.714Z,970.34
2023-02-15T18:07:21.593Z,970.38
2023-02-15T18:08:21.366Z,970.38
2023-02-15T18:09:21.591Z,970.38
2023-02-15T18:10:21.423Z,970.41
2023-02-15T18:11:21.476Z,970.39
2023-02-15T18:12:24.335Z,970.40
2023-02-15T18:13:21.339Z,970.39
2023-02-15T18:14:21.405Z,970.36
2023-02-15T18:15:21.301Z,970.44
2023-02-15T18:16:21.307Z,970.46
2023-02-15T18:17:21.238Z,970.45
2023-02-15T18:18:21.207Z,970.51
2023-02-15T18:19:21.207Z,970.55
2023-02-15T18:20:21.201Z,970.54
2023-02-15T18:21:21.179Z,970.53
2023-02-15T18:22:21.167Z,970.56
2023-02-15T18:23:21.242Z,970.54
2023-02-15T18:24:21.178Z,970.61
2023-02-15T18:25:21.183Z,970.58
2023-02-15T18:26:21.145Z,970.58
2023-02-15T18:27:24.151Z,970.57
2023-02-15T18:28:21.311Z,970.63
2023-02-15T18:29:21.120Z,970.65
2023-02-15T18:30:21.174Z,970.67
2023-02-15T18:31:21.251Z,970.67
2023-02-15T18:32:21.151Z,970.65
2023-02-15T18:33:21.048Z,970.65
2023-02-15T18:34:21.107Z,970.64
2023-02-15T18:35:21.072Z,970.73
2023-02-15T18:36:21.050Z,970.71
2023-02-15T18:37:21.048Z,970.73
2023-02-15T18:38:21.045Z,970.74
2023-02-15T18:39:20.998Z,970.72
2023-02-15T18:40:21.049Z,970.70
2023-02-15T18:41:20.976Z,970.73
2023-02-15T18:42:23.956Z,970.72
2023-02-15T18:43:20.988Z,970.75
2023-02-15T18:44:20.931Z,970.73
2023-02-15T18:45:20.957Z,970.75
2023-02-15T18:46:21.048Z,970.78
2023-02-15T18:47:20.908Z,970.80
2023-02-15T18:48:21.845Z,970.72
2023-02-15T18:49:20.917Z,970.77
2023-02-15T18:50:21.252Z,970.80
2023-02-15T18:51:20.898Z,970.75
2023-02-15T18:52:20.884Z,970.75
2023-02-15T18:53:21.196Z,970.75
2023-02-15T18:54:21.052Z,970.73
2023-02-15T18:55:20.856Z,970.75
2023-02-15T18:56:20.995Z,970.75
2023-02-15T18:57:23.895Z,970.78
2023-02-15T18:58:20.836Z,970.78
2023-02-15T18:59:20.810Z,970.78
2023-02-15T19:00:20.782Z,970.81
2023-02-15T19:01:20.907Z,970.78
2023-02-15T19:02:20.959Z,970.80
2023-02-15T19:03:20.766Z,970.74
2023-02-15T19:04:20.891Z,970.76
2023-02-15T19:05:20.798Z,970.80
2023-02-15T19:06:20.730Z,970.76
2023-02-15T19:07:20.731Z,970.77
2023-02-15T19:08:20.940Z,970.73
2023-02-15T19:09:20.702Z,970.75
2023-02-15T19:10:20.708Z,970.67
2023-02-15T19:11:20.773Z,970.79
2023-02-15T19:12:23.893Z,970.73
2023-02-15T19:13:20.698Z,970.75
2023-02-15T19:14:20.655Z,970.72
2023-02-15T19:15:20.651Z,970.79
2023-02-15T19:16:20.654Z,970.74
2023-02-15T19:17:20.606Z,970.69
2023-02-15T19:18:20.609Z,970.70
2023-02-15T19:19:20.608Z,970.73
2023-02-15T19:20:20.656Z,970.73
2023-02-15T19:21:20.573Z,970.73
2023-02-15T19:22:20.585Z,970.74
2023-02-15T19:23:20.608Z,970.79
2023-02-15T19:24:20.540Z,970.79
2023-02-15T19:25:20.566Z,970.81
2023-02-15T19:26:20.540Z,970.78
2023-02-15T19:27:24.541Z,970.84
2023-02-15T19:28:20.593Z,970.79
2023-02-15T19:29:20.498Z,970.81
2023-02-15T19:30:20.528Z,970.77
2023-02-15T19:31:20.588Z,970.77
2023-02-15T19:32:20.524Z,970.80
2023-02-15T19:33:20.444Z,970.80
2023-02-15T19:34:20.438Z,970.79
2023-02-15T19:35:20.457Z,970.76
2023-02-15T19:36:20.476Z,970.78
2023-02-15T19:37:20.428Z,970.83
2023-02-15T19:38:20.424Z,970.81
2023-02-15T19:39:20.407Z,970.80
2023-02-15T19:40:20.369Z,970.80
2023-02-15T19:41:20.362Z,970.78
2023-02-15T19:42:23.394Z,970.78
2023-02-15T19:43:20.351Z,970.80
2023-02-15T19:44:20.547Z,970.76
2023-02-15T19:45:20.321Z,970.75
2023-02-15T19:46:20.474Z,970.73
2023-02-15T19:47:20.344Z,970.68
2023-02-15T19:48:20.501Z,970.70
2023-02-15T19:49:20.300Z,970.70
2023-02-15T19:50:20.371Z,970.69
2023-02-15T19:51:20.563Z,970.67
2023-02-15T19:52:20.374Z,970.65
2023-02-15T19:53:20.666Z,970.70
2023-02-15T19:54:20.552Z,970.68
2023-02-15T19:55:20.395Z,970.69
2023-02-15T19:56:20.606Z,970.60
2023-02-15T19:57:23.570Z,970.64
2023-02-15T19:58:20.684Z,970.63
2023-02-15T19:59:20.609Z,970.61
2023-02-15T20:00:22.392Z,970.64
2023-02-15T20:01:20.709Z,970.61
2023-02-15T20:02:20.351Z,970.64
2023-02-15T20:03:20.613Z,970.71
2023-02-15T20:04:20.597Z,970.68
2023-02-15T20:05:20.171Z,970.69
2023-02-15T20:06:20.531Z,970.72
2023-02-15T20:07:20.552Z,970.72
2023-02-15T20:08:20.238Z,970.73
2023-02-15T20:09:20.466Z,970.72
2023-02-15T20:10:20.610Z,970.70
2023-02-15T20:11:20.462Z,970.70
2023-02-15T20:12:23.087Z,970.72
2023-02-15T20:13:20.452Z,970.68
2023-02-15T20:14:20.080Z,970.67
2023-02-15T20:15:20.231Z,970.66
2023-02-15T20:16:20.111Z,970.64
2023-02-15T20:17:20.023Z,970.66
2023-02-15T20:18:22.431Z,970.64
2023-02-15T20:19:19.984Z,970.59
2023-02-15T20:20:20.626Z,970.61
2023-02-15T20:21:19.959Z,970.59
2023-02-15T20:22:19.936Z,970.61
2023-02-15T20:23:19.967Z,970.58
2023-02-15T20:24:19.952Z,970.61
2023-02-15T20:25:19.916Z,970.62
2023-02-15T20:26:19.916Z,970.65
2023-02-15T20:27:22.889Z,970.66
2023-02-15T20:28:19.943Z,970.70
2023-02-15T20:29:19.898Z,970.68
2023-02-15T20:30:19.934Z,970.71
2023-02-15T20:31:19.996Z,970.72
2023-02-15T20:32:20.163Z,970.76
2023-02-15T20:33:19.861Z,970.69
2023-02-15T20:34:19.853Z,970.73
2023-02-15T20:35:19.870Z,970.71
2023-02-15T20:36:19.816Z,970.77
2023-02-15T20:37:19.784Z,970.71
2023-02-15T20:38:19.806Z,970.70
2023-02-15T20:39:20.111Z,970.70
2023-02-15T20:40:19.789Z,970.72
2023-02-15T20:41:19.758Z,970.70
2023-02-15T20:42:22.731Z,970.76
2023-02-15T20:43:19.758Z,970.75
2023-02-15T20:44:19.742Z,970.75
2023-02-15T20:45:19.735Z,970.74
2023-02-15T20:46:19.781Z,970.73
2023-02-15T20:47:19.689Z,970.78
2023-02-15T20:48:19.722Z,970.70
2023-02-15T20:49:19.688Z,970.75
2023-02-15T20:50:19.672Z,970.73
2023-02-15T20:51:19.645Z,970.78
2023-02-15T20:52:19.659Z,970.81
2023-02-15T20:53:19.626Z,970.79
2023-02-15T20:54:19.644Z,970.71
2023-02-15T20:55:19.622Z,970.72
2023-02-15T20:56:19.611Z,970.74
2023-02-15T20:57:22.571Z,970.73
2023-02-15T20:58:19.579Z,970.69
2023-02-15T20:59:19.592Z,970.66
2023-02-15T21:00:19.570Z,970.66
2023-02-15T21:01:19.579Z,970.69
2023-02-15T21:02:19.552Z,970.65
2023-02-15T21:03:19.542Z,970.65
2023-02-15T21:04:19.616Z,970.64
2023-02-15T21:05:19.530Z,970.67
2023-02-15T21:06:19.485Z,970.68
2023-02-15T21:07:19.509Z,970.67
2023-02-15T21:08:19.492Z,970.72
2023-02-15T21:09:19.487Z,970.68
2023-02-15T21:10:19.432Z,970.73
2023-02-15T21:11:19.433Z,970.72
2023-02-15T21:12:22.498Z,970.75
2023-02-15T21:13:19.456Z,970.75
2023-02-15T21:14:19.433Z,970.72
2023-02-15T21:15:19.510Z,970.71
2023-02-15T21:16:19.407Z,970.78
2023-02-15T21:17:19.402Z,970.76
2023-02-15T21:18:19.353Z,970.75
2023-02-15T21:19:19.354Z,970.74
2023-02-15T21:20:19.353Z,970.78
2023-02-15T21:21:19.329Z,970.81
2023-02-15T21:22:19.302Z,970.82
2023-02-15T21:23:19.305Z,970.80
2023-02-15T21:24:19.295Z,970.83
2023-02-15T21:25:19.317Z,970.83
2023-02-15T21:26:19.859Z,970.81
2023-02-15T21:27:22.284Z,970.85
2023-02-15T21:28:19.293Z,970.84
2023-02-15T21:29:19.269Z,970.89
2023-02-15T21:30:19.391Z,970.82
2023-02-15T21:31:19.309Z,970.90
2023-02-15T21:32:19.348Z,970.79
2023-02-15T21:33:19.225Z,970.84
2023-02-15T21:34:19.186Z,970.83
2023-02-15T21:35:19.207Z,970.83
2023-02-15T21:36:19.209Z,970.83
2023-02-15T21:37:19.236Z,970.81
2023-02-15T21:38:19.208Z,970.81
2023-02-15T21:39:19.171Z,970.81
2023-02-15T21:40:19.150Z,970.80
2023-02-15T21:41:19.191Z,970.81
2023-02-15T21:42:22.097Z,970.77
2023-02-15T21:43:19.107Z,970.78
2023-02-15T21:44:19.154Z,970.81
2023-02-15T21:45:19.111Z,970.77
2023-02-15T21:46:19.138Z,970.81
2023-02-15T21:47:20.077Z,970.79
2023-02-15T21:48:19.050Z,970.76
2023-02-15T21:49:20.088Z,970.80
2023-02-15T21:50:19.085Z,970.81
2023-02-15T21:51:19.097Z,970.76
2023-02-15T21:52:19.034Z,970.77
2023-02-15T21:53:19.033Z,970.75
2023-02-15T21:54:19.021Z,970.78
2023-02-15T21:55:18.997Z,970.73
2023-02-15T21:56:18.966Z,970.73
2023-02-15T21:57:22.555Z,970.70
2023-02-15T21:58:18.989Z,970.69
2023-02-15T21:59:18.928Z,970.69
2023-02-15T22:00:18.955Z,970.69
2023-02-15T22:01:18.996Z,970.67
2023-02-15T22:02:18.927Z,970.65
2023-02-15T22:03:18.928Z,970.62
2023-02-15T22:04:18.928Z,970.63
2023-02-15T22:05:19.024Z,970.60
2023-02-15T22:06:18.956Z,970.62
2023-02-15T22:07:18.849Z,970.60
2023-02-15T22:08:18.842Z,970.61
2023-02-15T22:09:18.858Z,970.60
2023-02-15T22:10:21.027Z,970.57
2023-02-15T22:11:18.817Z,970.61
2023-02-15T22:12:21.807Z,970.58
2023-02-15T22:13:18.805Z,970.54
2023-02-15T22:14:18.781Z,970.56
2023-02-15T22:15:18.836Z,970.62
2023-02-15T22:16:18.788Z,970.57
2023-02-15T22:17:18.756Z,970.62
2023-02-15T22:18:18.761Z,970.57
2023-02-15T22:19:18.771Z,970.56
2023-02-15T22:20:18.757Z,970.56
2023-02-15T22:21:18.741Z,970.52
2023-02-15T22:22:18.808Z,970.55
2023-02-15T22:23:18.721Z,970.55
2023-02-15T22:24:18.706Z,970.52
2023-02-15T22:25:18.669Z,970.51
2023-02-15T22:26:18.669Z,970.51
2023-02-15T22:27:21.686Z,970.53
2023-02-15T22:28:18.660Z,970.50
2023-02-15T22:29:18.669Z,970.50
2023-02-15T22:30:18.665Z,970.52
2023-02-15T22:31:18.873Z,970.50
2023-02-15T22:32:18.756Z,970.53
2023-02-15T22:33:18.608Z,970.50
2023-02-15T22:34:18.600Z,970.50
2023-02-15T22:35:18.572Z,970.52
2023-02-15T22:36:18.587Z,970.55
2023-02-15T22:37:18.575Z,970.49
2023-02-15T22:38:18.543Z,970.52
2023-02-15T22:39:18.527Z,970.48
2023-02-15T22:40:18.551Z,970.54
2023-02-15T22:41:18.538Z,970.55
2023-02-15T22:42:21.564Z,970.51
2023-02-15T22:43:18.531Z,970.53
2023-02-15T22:44:18.499Z,970.57
2023-02-15T22:45:18.488Z,970.57
2023-02-15T22:46:18.528Z,970.59
2023-02-15T22:47:18.490Z,970.61
2023-02-15T22:48:18.437Z,970.65
2023-02-15T22:49:18.436Z,970.69
2023-02-15T22:50:18.427Z,970.64
2023-02-15T22:51:18.439Z,970.60
2023-02-15T22:52:18.397Z,970.60
2023-02-15T22:53:18.461Z,970.60
2023-02-15T22:54:18.406Z,970.58
2023-02-15T22:55:18.380Z,970.57
2023-02-15T22:56:18.386Z,970.59
2023-02-15T22:57:21.383Z,970.59
2023-02-15T22:58:18.388Z,970.55
2023-02-15T22:59:18.368Z,970.60
2023-02-15T23:00:18.365Z,970.58
2023-02-15T23:01:18.342Z,970.60
2023-02-15T23:02:18.329Z,970.64
2023-02-15T23:03:18.329Z,970.61
2023-02-15T23:04:18.419Z,970.61
2023-02-15T23:05:18.355Z,970.65
2023-02-15T23:06:18.294Z,970.63
2023-02-15T23:07:18.284Z,970.66
2023-02-15T23:08:18.293Z,970.70
2023-02-15T23:09:18.246Z,970.69
2023-02-15T23:10:18.254Z,970.68
2023-02-15T23:11:18.239Z,970.66
2023-02-15T23:12:21.232Z,970.68
2023-02-15T23:13:18.261Z,970.74
2023-02-15T23:14:18.212Z,970.76
2023-02-15T23:15:18.204Z,970.72
2023-02-15T23:16:18.246Z,970.68
2023-02-15T23:17:18.154Z,970.71
2023-02-15T23:18:18.138Z,970.64
2023-02-15T23:19:18.163Z,970.63
2023-02-15T23:20:18.175Z,970.61
2023-02-15T23:21:18.140Z,970.65
2023-02-15T23:22:18.145Z,970.65
2023-02-15T23:23:18.093Z,970.59
2023-02-15T23:24:18.126Z,970.57
2023-02-15T23:25:18.104Z,970.54
2023-02-15T23:26:18.457Z,970.54
2023-02-15T23:27:21.105Z,970.53
2023-02-15T23:28:18.105Z,970.53
2023-02-15T23:29:18.057Z,970.51
2023-02-15T23:30:18.100Z,970.50
2023-02-15T23:31:18.083Z,970.47
2023-02-15T23:32:18.200Z,970.49
2023-02-15T23:33:18.032Z,970.48
2023-02-15T23:34:17.999Z,970.47
2023-02-15T23:35:18.028Z,970.45
2023-02-15T23:36:17.975Z,970.51
2023-02-15T23:37:17.963Z,970.48
2023-02-15T23:38:17.958Z,970.45
2023-02-15T23:39:17.968Z,970.46
2023-02-15T23:40:17.955Z,970.42
2023-02-15T23:41:17.953Z,970.42
2023-02-15T23:42:20.928Z,970.48
2023-02-15T23:43:17.961Z,970.45
2023-02-15T23:44:17.922Z,970.44
2023-02-15T23:45:17.916Z,970.47
2023-02-15T23:46:17.968Z,970.51
2023-02-15T23:47:17.891Z,970.49
2023-02-15T23:48:17.856Z,970.51
2023-02-15T23:49:17.883Z,970.54
2023-02-15T23:50:17.869Z,970.55
2023-02-15T23:51:17.885Z,970.54
2023-02-15T23:52:17.818Z,970.52
2023-02-15T23:53:17.807Z,970.52
2023-02-15T23:54:17.784Z,970.49
2023-02-15T23:55:26.326Z,970.49
2023-02-15T23:56:17.798Z,970.53
2023-02-15T23:57:29.290Z,970.55
2023-02-15T23:58:25.290Z,970.53
